sensor_id;sensor_type;location;lat;lon;timestamp;temperature;humidity
3868;DHT22;1949;48.152;11.528;2022-12-18T00:01:35;5.10;43.70
3868;DHT22;1949;48.152;11.528;2022-12-18T00:04:03;5.30;43.70
3868;DHT22;1949;48.152;11.528;2022-12-18T00:06:31;5.10;43.40
3868;DHT22;1949;48.152;11.528;2022-12-18T00:09:00;5.10;43.40
3868;DHT22;1949;48.152;11.528;2022-12-18T00:11:30;5.00;43.30
3868;DHT22;1949;48.152;11.528;2022-12-18T00:13:57;5.00;43.40
3868;DHT22;1949;48.152;11.528;2022-12-18T00:16:26;5.00;43.40
3868;DHT22;1949;48.152;11.528;2022-12-18T00:18:54;5.00;43.40
3868;DHT22;1949;48.152;11.528;2022-12-18T00:21:22;4.90;43.30
3868;DHT22;1949;48.152;11.528;2022-12-18T00:23:48;4.90;43.40
3868;DHT22;1949;48.152;11.528;2022-12-18T00:26:21;4.90;43.40
3868;DHT22;1949;48.152;11.528;2022-12-18T00:28:49;4.80;43.50
3868;DHT22;1949;48.152;11.528;2022-12-18T00:31:17;4.80;43.40
3868;DHT22;1949;48.152;11.528;2022-12-18T00:33:46;4.80;43.50
3868;DHT22;1949;48.152;11.528;2022-12-18T00:36:20;4.80;43.60
3868;DHT22;1949;48.152;11.528;2022-12-18T00:38:52;4.80;43.60
3868;DHT22;1949;48.152;11.528;2022-12-18T00:41:19;4.80;43.60
3868;DHT22;1949;48.152;11.528;2022-12-18T00:44:05;5.00;43.80
3868;DHT22;1949;48.152;11.528;2022-12-18T00:46:31;4.90;43.70
3868;DHT22;1949;48.152;11.528;2022-12-18T00:48:57;4.90;43.70
3868;DHT22;1949;48.152;11.528;2022-12-18T00:51:23;4.90;43.60
3868;DHT22;1949;48.152;11.528;2022-12-18T00:53:49;4.90;43.60
3868;DHT22;1949;48.152;11.528;2022-12-18T00:56:15;4.90;43.50
3868;DHT22;1949;48.152;11.528;2022-12-18T00:58:40;5.10;43.60
3868;DHT22;1949;48.152;11.528;2022-12-18T01:01:07;4.90;43.50
3868;DHT22;1949;48.152;11.528;2022-12-18T01:03:33;4.90;43.50
3868;DHT22;1949;48.152;11.528;2022-12-18T01:06:04;4.90;43.40
3868;DHT22;1949;48.152;11.528;2022-12-18T01:08:32;4.90;43.40
3868;DHT22;1949;48.152;11.528;2022-12-18T01:10:59;4.90;43.90
3868;DHT22;1949;48.152;11.528;2022-12-18T01:13:25;4.90;43.50
3868;DHT22;1949;48.152;11.528;2022-12-18T01:15:56;4.90;43.60
3868;DHT22;1949;48.152;11.528;2022-12-18T01:18:23;4.90;43.60
3868;DHT22;1949;48.152;11.528;2022-12-18T01:20:56;4.90;43.50
3868;DHT22;1949;48.152;11.528;2022-12-18T01:23:23;4.90;43.40
3868;DHT22;1949;48.152;11.528;2022-12-18T01:25:54;4.90;43.40
3868;DHT22;1949;48.152;11.528;2022-12-18T01:28:20;4.90;43.50
3868;DHT22;1949;48.152;11.528;2022-12-18T01:30:46;4.90;43.60
3868;DHT22;1949;48.152;11.528;2022-12-18T01:33:12;4.90;43.70
3868;DHT22;1949;48.152;11.528;2022-12-18T01:35:42;4.90;43.60
3868;DHT22;1949;48.152;11.528;2022-12-18T01:38:08;4.90;43.50
3868;DHT22;1949;48.152;11.528;2022-12-18T01:40:36;5.00;43.60
3868;DHT22;1949;48.152;11.528;2022-12-18T01:43:04;5.00;43.70
3868;DHT22;1949;48.152;11.528;2022-12-18T01:45:31;5.00;43.60
3868;DHT22;1949;48.152;11.528;2022-12-18T01:48:06;5.00;43.50
3868;DHT22;1949;48.152;11.528;2022-12-18T01:50:37;5.00;43.40
3868;DHT22;1949;48.152;11.528;2022-12-18T01:55:43;4.90;43.30
3868;DHT22;1949;48.152;11.528;2022-12-18T01:58:09;4.80;43.30
3868;DHT22;1949;48.152;11.528;2022-12-18T02:00:34;4.80;43.30
3868;DHT22;1949;48.152;11.528;2022-12-18T02:03:00;4.90;43.40
3868;DHT22;1949;48.152;11.528;2022-12-18T02:11:10;4.70;43.40
3868;DHT22;1949;48.152;11.528;2022-12-18T02:19:00;4.60;43.50
3868;DHT22;1949;48.152;11.528;2022-12-18T02:21:42;4.60;43.50
3868;DHT22;1949;48.152;11.528;2022-12-18T02:27:03;4.50;43.50
3868;DHT22;1949;48.152;11.528;2022-12-18T02:29:45;4.50;43.50
3868;DHT22;1949;48.152;11.528;2022-12-18T02:32:20;4.40;43.50
3868;DHT22;1949;48.152;11.528;2022-12-18T02:34:48;4.50;43.70
3868;DHT22;1949;48.152;11.528;2022-12-18T02:37:17;4.50;43.90
3868;DHT22;1949;48.152;11.528;2022-12-18T02:39:49;4.50;43.80
3868;DHT22;1949;48.152;11.528;2022-12-18T02:42:16;4.60;43.90
3868;DHT22;1949;48.152;11.528;2022-12-18T02:44:49;4.60;43.70
3868;DHT22;1949;48.152;11.528;2022-12-18T02:47:22;4.60;43.60
3868;DHT22;1949;48.152;11.528;2022-12-18T03:01:38;4.70;43.80
3868;DHT22;1949;48.152;11.528;2022-12-18T03:04:14;4.70;43.70
3868;DHT22;1949;48.152;11.528;2022-12-18T03:06:46;4.70;43.60
3868;DHT22;1949;48.152;11.528;2022-12-18T03:09:19;4.70;43.60
3868;DHT22;1949;48.152;11.528;2022-12-18T03:11:51;4.70;43.50
3868;DHT22;1949;48.152;11.528;2022-12-18T03:14:38;4.70;43.50
3868;DHT22;1949;48.152;11.528;2022-12-18T03:17:09;4.60;43.50
3868;DHT22;1949;48.152;11.528;2022-12-18T03:19:39;4.70;43.50
3868;DHT22;1949;48.152;11.528;2022-12-18T03:22:07;4.70;43.60
3868;DHT22;1949;48.152;11.528;2022-12-18T03:24:35;4.60;43.50
3868;DHT22;1949;48.152;11.528;2022-12-18T03:27:08;4.60;43.60
3868;DHT22;1949;48.152;11.528;2022-12-18T03:29:41;4.60;43.70
3868;DHT22;1949;48.152;11.528;2022-12-18T03:32:12;4.60;43.60
3868;DHT22;1949;48.152;11.528;2022-12-18T03:34:40;4.60;43.40
3868;DHT22;1949;48.152;11.528;2022-12-18T03:37:07;4.50;43.30
3868;DHT22;1949;48.152;11.528;2022-12-18T03:39:34;4.50;43.40
3868;DHT22;1949;48.152;11.528;2022-12-18T03:42:51;4.50;43.60
3868;DHT22;1949;48.152;11.528;2022-12-18T03:52:52;4.50;43.70
3868;DHT22;1949;48.152;11.528;2022-12-18T03:55:19;4.60;43.60
3868;DHT22;1949;48.152;11.528;2022-12-18T03:57:48;4.40;43.50
3868;DHT22;1949;48.152;11.528;2022-12-18T04:00:16;4.50;43.70
3868;DHT22;1949;48.152;11.528;2022-12-18T04:02:49;4.40;43.70
3868;DHT22;1949;48.152;11.528;2022-12-18T04:05:17;4.40;43.70
3868;DHT22;1949;48.152;11.528;2022-12-18T04:07:51;4.40;43.70
3868;DHT22;1949;48.152;11.528;2022-12-18T04:10:18;4.40;43.70
3868;DHT22;1949;48.152;11.528;2022-12-18T04:12:44;4.40;43.70
3868;DHT22;1949;48.152;11.528;2022-12-18T04:15:11;4.40;43.80
3868;DHT22;1949;48.152;11.528;2022-12-18T04:17:38;4.40;43.70
3868;DHT22;1949;48.152;11.528;2022-12-18T04:20:04;4.50;43.80
3868;DHT22;1949;48.152;11.528;2022-12-18T04:22:33;4.50;43.80
3868;DHT22;1949;48.152;11.528;2022-12-18T04:24:59;4.50;43.70
3868;DHT22;1949;48.152;11.528;2022-12-18T04:27:27;4.50;43.70
3868;DHT22;1949;48.152;11.528;2022-12-18T04:29:53;4.50;44.20
3868;DHT22;1949;48.152;11.528;2022-12-18T04:32:21;4.50;43.60
3868;DHT22;1949;48.152;11.528;2022-12-18T04:34:46;4.60;43.70
3868;DHT22;1949;48.152;11.528;2022-12-18T04:37:12;4.60;43.70
3868;DHT22;1949;48.152;11.528;2022-12-18T04:39:38;4.60;43.70
3868;DHT22;1949;48.152;11.528;2022-12-18T04:42:04;4.60;43.60
3868;DHT22;1949;48.152;11.528;2022-12-18T04:44:29;4.50;43.50
3868;DHT22;1949;48.152;11.528;2022-12-18T04:46:55;4.50;43.60
3868;DHT22;1949;48.152;11.528;2022-12-18T04:49:21;4.50;43.70
3868;DHT22;1949;48.152;11.528;2022-12-18T04:51:48;4.50;43.60
3868;DHT22;1949;48.152;11.528;2022-12-18T04:54:13;4.50;43.50
3868;DHT22;1949;48.152;11.528;2022-12-18T04:56:39;4.50;43.60
3868;DHT22;1949;48.152;11.528;2022-12-18T04:59:06;4.40;43.50
3868;DHT22;1949;48.152;11.528;2022-12-18T05:01:34;4.50;43.80
3868;DHT22;1949;48.152;11.528;2022-12-18T05:04:00;4.50;43.80
3868;DHT22;1949;48.152;11.528;2022-12-18T05:06:26;4.50;43.70
3868;DHT22;1949;48.152;11.528;2022-12-18T05:08:51;4.50;43.70
3868;DHT22;1949;48.152;11.528;2022-12-18T05:11:19;4.50;43.70
3868;DHT22;1949;48.152;11.528;2022-12-18T05:13:45;4.50;43.70
3868;DHT22;1949;48.152;11.528;2022-12-18T05:16:11;4.50;43.70
3868;DHT22;1949;48.152;11.528;2022-12-18T05:18:38;4.50;43.70
3868;DHT22;1949;48.152;11.528;2022-12-18T05:21:04;4.50;43.70
3868;DHT22;1949;48.152;11.528;2022-12-18T05:23:30;4.50;44.20
3868;DHT22;1949;48.152;11.528;2022-12-18T05:25:59;4.50;43.80
3868;DHT22;1949;48.152;11.528;2022-12-18T05:28:27;4.60;43.80
3868;DHT22;1949;48.152;11.528;2022-12-18T05:30:57;4.60;43.70
3868;DHT22;1949;48.152;11.528;2022-12-18T05:33:25;4.60;43.50
3868;DHT22;1949;48.152;11.528;2022-12-18T05:35:56;4.60;43.50
3868;DHT22;1949;48.152;11.528;2022-12-18T05:38:31;4.60;43.50
3868;DHT22;1949;48.152;11.528;2022-12-18T05:40:59;4.50;43.40
3868;DHT22;1949;48.152;11.528;2022-12-18T05:43:27;4.50;43.60
3868;DHT22;1949;48.152;11.528;2022-12-18T05:45:54;4.50;43.80
3868;DHT22;1949;48.152;11.528;2022-12-18T05:48:21;4.50;43.90
3868;DHT22;1949;48.152;11.528;2022-12-18T05:50:48;4.50;43.80
3868;DHT22;1949;48.152;11.528;2022-12-18T05:53:19;4.60;43.70
3868;DHT22;1949;48.152;11.528;2022-12-18T05:55:45;4.60;43.60
3868;DHT22;1949;48.152;11.528;2022-12-18T05:58:14;4.60;43.70
3868;DHT22;1949;48.152;11.528;2022-12-18T06:00:43;4.60;43.70
3868;DHT22;1949;48.152;11.528;2022-12-18T06:03:13;4.60;43.50
3868;DHT22;1949;48.152;11.528;2022-12-18T06:05:41;4.60;43.50
3868;DHT22;1949;48.152;11.528;2022-12-18T06:08:07;4.60;44.20
3868;DHT22;1949;48.152;11.528;2022-12-18T06:10:33;4.50;43.50
3868;DHT22;1949;48.152;11.528;2022-12-18T06:12:59;4.60;43.60
3868;DHT22;1949;48.152;11.528;2022-12-18T06:15:25;4.50;43.60
3868;DHT22;1949;48.152;11.528;2022-12-18T06:17:51;4.50;43.50
3868;DHT22;1949;48.152;11.528;2022-12-18T06:20:17;4.50;43.40
3868;DHT22;1949;48.152;11.528;2022-12-18T06:22:43;4.50;43.40
3868;DHT22;1949;48.152;11.528;2022-12-18T06:25:23;4.40;43.40
3868;DHT22;1949;48.152;11.528;2022-12-18T06:27:49;4.40;43.50
3868;DHT22;1949;48.152;11.528;2022-12-18T06:30:17;4.40;43.50
3868;DHT22;1949;48.152;11.528;2022-12-18T06:32:43;4.50;43.70
3868;DHT22;1949;48.152;11.528;2022-12-18T06:35:10;4.50;43.70
3868;DHT22;1949;48.152;11.528;2022-12-18T06:37:42;4.50;43.50
3868;DHT22;1949;48.152;11.528;2022-12-18T06:40:10;4.50;43.40
3868;DHT22;1949;48.152;11.528;2022-12-18T06:42:36;4.50;43.40
3868;DHT22;1949;48.152;11.528;2022-12-18T06:45:02;4.40;43.30
3868;DHT22;1949;48.152;11.528;2022-12-18T06:47:30;4.40;43.40
3868;DHT22;1949;48.152;11.528;2022-12-18T06:49:57;4.60;43.60
3868;DHT22;1949;48.152;11.528;2022-12-18T06:52:24;4.40;43.60
3868;DHT22;1949;48.152;11.528;2022-12-18T06:54:49;4.40;43.60
3868;DHT22;1949;48.152;11.528;2022-12-18T06:57:15;4.40;43.70
3868;DHT22;1949;48.152;11.528;2022-12-18T06:59:42;4.50;43.70
3868;DHT22;1949;48.152;11.528;2022-12-18T07:02:12;4.50;43.50
3868;DHT22;1949;48.152;11.528;2022-12-18T07:04:40;4.60;43.50
3868;DHT22;1949;48.152;11.528;2022-12-18T07:07:09;4.40;43.40
3868;DHT22;1949;48.152;11.528;2022-12-18T07:09:37;4.60;43.70
3868;DHT22;1949;48.152;11.528;2022-12-18T07:12:03;4.50;43.70
3868;DHT22;1949;48.152;11.528;2022-12-18T07:14:32;4.50;43.70
3868;DHT22;1949;48.152;11.528;2022-12-18T07:17:01;4.50;43.70
3868;DHT22;1949;48.152;11.528;2022-12-18T07:19:33;4.50;43.40
3868;DHT22;1949;48.152;11.528;2022-12-18T07:21:59;4.50;43.50
3868;DHT22;1949;48.152;11.528;2022-12-18T07:24:27;4.60;44.20
3868;DHT22;1949;48.152;11.528;2022-12-18T07:26:55;4.70;43.70
3868;DHT22;1949;48.152;11.528;2022-12-18T07:29:22;4.60;43.50
3868;DHT22;1949;48.152;11.528;2022-12-18T07:31:47;4.60;44.00
3868;DHT22;1949;48.152;11.528;2022-12-18T07:34:14;4.70;43.50
3868;DHT22;1949;48.152;11.528;2022-12-18T07:36:41;4.60;43.40
3868;DHT22;1949;48.152;11.528;2022-12-18T07:39:09;4.60;43.30
3868;DHT22;1949;48.152;11.528;2022-12-18T07:41:36;4.60;43.30
3868;DHT22;1949;48.152;11.528;2022-12-18T07:44:02;4.60;43.40
3868;DHT22;1949;48.152;11.528;2022-12-18T07:46:29;4.60;43.30
3868;DHT22;1949;48.152;11.528;2022-12-18T07:48:57;4.60;43.50
3868;DHT22;1949;48.152;11.528;2022-12-18T07:51:23;4.60;43.50
3868;DHT22;1949;48.152;11.528;2022-12-18T07:53:52;4.60;44.00
3868;DHT22;1949;48.152;11.528;2022-12-18T07:56:18;4.60;43.40
3868;DHT22;1949;48.152;11.528;2022-12-18T07:58:46;4.80;43.50
3868;DHT22;1949;48.152;11.528;2022-12-18T08:01:14;4.60;43.30
3868;DHT22;1949;48.152;11.528;2022-12-18T08:03:40;4.60;43.20
3868;DHT22;1949;48.152;11.528;2022-12-18T08:06:09;4.60;43.20
3868;DHT22;1949;48.152;11.528;2022-12-18T08:08:36;4.50;43.10
3868;DHT22;1949;48.152;11.528;2022-12-18T08:11:02;4.50;43.20
3868;DHT22;1949;48.152;11.528;2022-12-18T08:13:28;4.50;43.30
3868;DHT22;1949;48.152;11.528;2022-12-18T08:16:00;4.50;43.20
3868;DHT22;1949;48.152;11.528;2022-12-18T08:18:34;4.50;43.30
3868;DHT22;1949;48.152;11.528;2022-12-18T08:21:12;4.50;43.30
3868;DHT22;1949;48.152;11.528;2022-12-18T08:23:39;4.40;43.10
3868;DHT22;1949;48.152;11.528;2022-12-18T08:26:05;4.40;43.20
3868;DHT22;1949;48.152;11.528;2022-12-18T08:28:31;4.40;43.20
3868;DHT22;1949;48.152;11.528;2022-12-18T08:30:57;4.50;43.30
3868;DHT22;1949;48.152;11.528;2022-12-18T08:33:25;4.30;43.20
3868;DHT22;1949;48.152;11.528;2022-12-18T08:35:52;4.30;43.20
3868;DHT22;1949;48.152;11.528;2022-12-18T08:38:17;4.30;43.40
3868;DHT22;1949;48.152;11.528;2022-12-18T08:40:45;4.40;43.50
3868;DHT22;1949;48.152;11.528;2022-12-18T08:43:12;4.40;43.50
3868;DHT22;1949;48.152;11.528;2022-12-18T08:45:57;4.40;43.40
3868;DHT22;1949;48.152;11.528;2022-12-18T08:48:27;4.40;43.20
3868;DHT22;1949;48.152;11.528;2022-12-18T08:50:59;4.50;43.30
3868;DHT22;1949;48.152;11.528;2022-12-18T08:53:28;4.40;43.30
3868;DHT22;1949;48.152;11.528;2022-12-18T08:55:56;4.50;43.50
3868;DHT22;1949;48.152;11.528;2022-12-18T08:58:23;4.50;43.50
3868;DHT22;1949;48.152;11.528;2022-12-18T09:00:50;4.50;43.40
3868;DHT22;1949;48.152;11.528;2022-12-18T09:03:18;4.50;43.20
3868;DHT22;1949;48.152;11.528;2022-12-18T09:05:45;4.50;43.20
3868;DHT22;1949;48.152;11.528;2022-12-18T09:08:14;4.50;43.30
3868;DHT22;1949;48.152;11.528;2022-12-18T09:10:50;4.50;43.20
3868;DHT22;1949;48.152;11.528;2022-12-18T09:13:16;4.50;43.10
3868;DHT22;1949;48.152;11.528;2022-12-18T09:15:53;4.50;43.10
3868;DHT22;1949;48.152;11.528;2022-12-18T09:18:24;4.50;43.30
3868;DHT22;1949;48.152;11.528;2022-12-18T09:20:52;4.50;43.40
3868;DHT22;1949;48.152;11.528;2022-12-18T09:23:18;4.50;43.30
3868;DHT22;1949;48.152;11.528;2022-12-18T09:25:44;4.50;43.40
3868;DHT22;1949;48.152;11.528;2022-12-18T09:28:12;4.60;43.40
3868;DHT22;1949;48.152;11.528;2022-12-18T09:30:48;4.60;43.30
3868;DHT22;1949;48.152;11.528;2022-12-18T09:33:15;4.60;43.10
3868;DHT22;1949;48.152;11.528;2022-12-18T09:35:44;4.70;43.10
3868;DHT22;1949;48.152;11.528;2022-12-18T09:38:13;4.50;43.00
3868;DHT22;1949;48.152;11.528;2022-12-18T09:41:04;4.50;43.10
3868;DHT22;1949;48.152;11.528;2022-12-18T09:44:00;4.50;43.10
3868;DHT22;1949;48.152;11.528;2022-12-18T09:46:40;4.50;43.20
3868;DHT22;1949;48.152;11.528;2022-12-18T09:49:12;4.50;43.30
3868;DHT22;1949;48.152;11.528;2022-12-18T09:52:00;4.50;43.20
3868;DHT22;1949;48.152;11.528;2022-12-18T09:54:33;4.50;43.10
3868;DHT22;1949;48.152;11.528;2022-12-18T09:57:01;4.50;43.30
3868;DHT22;1949;48.152;11.528;2022-12-18T09:59:35;4.50;43.20
3868;DHT22;1949;48.152;11.528;2022-12-18T10:02:23;4.50;43.10
3868;DHT22;1949;48.152;11.528;2022-12-18T10:05:06;4.50;43.10
3868;DHT22;1949;48.152;11.528;2022-12-18T10:18:50;4.40;43.20
3868;DHT22;1949;48.152;11.528;2022-12-18T10:24:41;4.50;43.40
3868;DHT22;1949;48.152;11.528;2022-12-18T10:27:25;4.50;43.30
3868;DHT22;1949;48.152;11.528;2022-12-18T10:29:54;4.50;43.30
3868;DHT22;1949;48.152;11.528;2022-12-18T10:32:24;4.50;43.10
3868;DHT22;1949;48.152;11.528;2022-12-18T10:34:56;4.50;43.10
3868;DHT22;1949;48.152;11.528;2022-12-18T10:37:26;4.50;43.10
3868;DHT22;1949;48.152;11.528;2022-12-18T10:40:19;4.50;43.30
3868;DHT22;1949;48.152;11.528;2022-12-18T10:43:05;4.50;43.00
3868;DHT22;1949;48.152;11.528;2022-12-18T10:45:36;4.60;43.00
3868;DHT22;1949;48.152;11.528;2022-12-18T10:48:03;4.50;43.10
3868;DHT22;1949;48.152;11.528;2022-12-18T10:50:34;4.50;43.10
3868;DHT22;1949;48.152;11.528;2022-12-18T10:53:03;4.50;43.20
3868;DHT22;1949;48.152;11.528;2022-12-18T10:55:35;4.50;43.40
3868;DHT22;1949;48.152;11.528;2022-12-18T11:01:15;4.60;43.30
3868;DHT22;1949;48.152;11.528;2022-12-18T11:06:21;4.50;43.20
3868;DHT22;1949;48.152;11.528;2022-12-18T11:09:03;4.50;43.10
3868;DHT22;1949;48.152;11.528;2022-12-18T11:11:29;4.50;43.00
3868;DHT22;1949;48.152;11.528;2022-12-18T11:14:06;4.50;42.90
3868;DHT22;1949;48.152;11.528;2022-12-18T11:16:54;4.50;43.10
3868;DHT22;1949;48.152;11.528;2022-12-18T11:19:36;4.50;43.10
3868;DHT22;1949;48.152;11.528;2022-12-18T11:22:25;4.50;43.10
3868;DHT22;1949;48.152;11.528;2022-12-18T11:25:06;4.50;43.10
3868;DHT22;1949;48.152;11.528;2022-12-18T11:27:32;4.60;43.30
3868;DHT22;1949;48.152;11.528;2022-12-18T11:30:29;4.60;43.40
3868;DHT22;1949;48.152;11.528;2022-12-18T11:33:15;4.80;43.40
3868;DHT22;1949;48.152;11.528;2022-12-18T11:35:56;4.70;43.20
3868;DHT22;1949;48.152;11.528;2022-12-18T11:38:37;4.70;43.10
3868;DHT22;1949;48.152;11.528;2022-12-18T11:41:15;4.70;43.00
3868;DHT22;1949;48.152;11.528;2022-12-18T11:43:53;4.70;43.10
3868;DHT22;1949;48.152;11.528;2022-12-18T11:46:33;4.80;43.20
3868;DHT22;1949;48.152;11.528;2022-12-18T11:49:12;4.80;43.20
3868;DHT22;1949;48.152;11.528;2022-12-18T11:52:01;4.80;43.30
3868;DHT22;1949;48.152;11.528;2022-12-18T11:54:28;4.90;43.30
3868;DHT22;1949;48.152;11.528;2022-12-18T11:59:33;4.90;43.10
3868;DHT22;1949;48.152;11.528;2022-12-18T12:11:25;4.90;43.10
3868;DHT22;1949;48.152;11.528;2022-12-18T12:33:21;4.70;43.20
3868;DHT22;1949;48.152;11.528;2022-12-18T12:38:51;4.80;43.20
3868;DHT22;1949;48.152;11.528;2022-12-18T12:41:24;4.80;43.10
3868;DHT22;1949;48.152;11.528;2022-12-18T12:44:18;4.80;43.00
3868;DHT22;1949;48.152;11.528;2022-12-18T12:46:50;4.80;43.00
3868;DHT22;1949;48.152;11.528;2022-12-18T12:49:30;4.90;43.10
3868;DHT22;1949;48.152;11.528;2022-12-18T12:52:10;4.90;43.10
3868;DHT22;1949;48.152;11.528;2022-12-18T12:54:44;4.90;43.10
3868;DHT22;1949;48.152;11.528;2022-12-18T12:57:37;4.90;43.10
3868;DHT22;1949;48.152;11.528;2022-12-18T13:00:16;4.90;42.90
3868;DHT22;1949;48.152;11.528;2022-12-18T13:07:59;4.90;43.00
3868;DHT22;1949;48.152;11.528;2022-12-18T13:10:34;4.90;42.80
3868;DHT22;1949;48.152;11.528;2022-12-18T13:13:14;4.90;42.90
3868;DHT22;1949;48.152;11.528;2022-12-18T13:15:45;4.90;43.00
3868;DHT22;1949;48.152;11.528;2022-12-18T13:20:47;4.90;43.10
3868;DHT22;1949;48.152;11.528;2022-12-18T13:23:27;5.00;43.10
3868;DHT22;1949;48.152;11.528;2022-12-18T13:36:37;5.00;42.90
3868;DHT22;1949;48.152;11.528;2022-12-18T13:39:20;5.10;43.00
3868;DHT22;1949;48.152;11.528;2022-12-18T13:44:38;5.00;42.90
3868;DHT22;1949;48.152;11.528;2022-12-18T13:49:55;5.00;42.80
3868;DHT22;1949;48.152;11.528;2022-12-18T13:52:26;5.00;42.90
3868;DHT22;1949;48.152;11.528;2022-12-18T13:54:59;5.00;42.90
3868;DHT22;1949;48.152;11.528;2022-12-18T13:57:30;5.00;42.90
3868;DHT22;1949;48.152;11.528;2022-12-18T14:02:58;5.00;42.90
3868;DHT22;1949;48.152;11.528;2022-12-18T14:05:29;5.00;42.90
3868;DHT22;1949;48.152;11.528;2022-12-18T14:08:03;5.00;42.90
3868;DHT22;1949;48.152;11.528;2022-12-18T14:10:30;4.90;42.80
3868;DHT22;1949;48.152;11.528;2022-12-18T14:12:56;4.90;42.80
3868;DHT22;1949;48.152;11.528;2022-12-18T14:18:00;4.90;42.90
3868;DHT22;1949;48.152;11.528;2022-12-18T14:20:30;4.90;42.90
3868;DHT22;1949;48.152;11.528;2022-12-18T14:22:57;4.90;42.80
3868;DHT22;1949;48.152;11.528;2022-12-18T14:25:29;4.90;42.90
3868;DHT22;1949;48.152;11.528;2022-12-18T14:30:37;4.90;43.10
3868;DHT22;1949;48.152;11.528;2022-12-18T14:33:13;4.90;43.10
3868;DHT22;1949;48.152;11.528;2022-12-18T14:35:42;4.90;43.10
3868;DHT22;1949;48.152;11.528;2022-12-18T14:38:37;5.00;43.00
3868;DHT22;1949;48.152;11.528;2022-12-18T14:41:13;5.00;43.00
3868;DHT22;1949;48.152;11.528;2022-12-18T14:43:42;4.90;42.90
3868;DHT22;1949;48.152;11.528;2022-12-18T14:48:56;4.90;42.70
3868;DHT22;1949;48.152;11.528;2022-12-18T14:51:24;4.80;42.70
3868;DHT22;1949;48.152;11.528;2022-12-18T14:54:16;4.80;42.70
3868;DHT22;1949;48.152;11.528;2022-12-18T14:56:47;4.70;42.70
3868;DHT22;1949;48.152;11.528;2022-12-18T14:59:24;4.70;42.90
3868;DHT22;1949;48.152;11.528;2022-12-18T15:01:57;4.70;43.00
3868;DHT22;1949;48.152;11.528;2022-12-18T15:04:36;4.70;43.10
3868;DHT22;1949;48.152;11.528;2022-12-18T15:09:40;4.80;43.00
3868;DHT22;1949;48.152;11.528;2022-12-18T15:12:34;4.80;43.00
3868;DHT22;1949;48.152;11.528;2022-12-18T15:15:00;4.80;43.00
3868;DHT22;1949;48.152;11.528;2022-12-18T15:17:26;4.80;43.00
3868;DHT22;1949;48.152;11.528;2022-12-18T15:20:01;4.80;43.00
3868;DHT22;1949;48.152;11.528;2022-12-18T15:22:34;4.90;43.00
3868;DHT22;1949;48.152;11.528;2022-12-18T15:25:21;4.80;43.00
3868;DHT22;1949;48.152;11.528;2022-12-18T15:27:50;4.80;43.70
3868;DHT22;1949;48.152;11.528;2022-12-18T15:30:21;4.80;43.00
3868;DHT22;1949;48.152;11.528;2022-12-18T15:32:48;4.80;43.00
3868;DHT22;1949;48.152;11.528;2022-12-18T15:35:24;4.90;43.10
3868;DHT22;1949;48.152;11.528;2022-12-18T15:37:55;4.90;43.10
3868;DHT22;1949;48.152;11.528;2022-12-18T15:40:23;4.90;43.00
3868;DHT22;1949;48.152;11.528;2022-12-18T15:42:53;4.80;42.80
3868;DHT22;1949;48.152;11.528;2022-12-18T15:45:38;4.80;42.70
3868;DHT22;1949;48.152;11.528;2022-12-18T15:48:20;4.70;42.60
3868;DHT22;1949;48.152;11.528;2022-12-18T15:50:46;4.70;42.80
3868;DHT22;1949;48.152;11.528;2022-12-18T15:53:13;4.70;43.10
3868;DHT22;1949;48.152;11.528;2022-12-18T15:55:42;4.70;43.20
3868;DHT22;1949;48.152;11.528;2022-12-18T15:58:26;4.70;43.20
3868;DHT22;1949;48.152;11.528;2022-12-18T16:00:53;4.70;43.00
3868;DHT22;1949;48.152;11.528;2022-12-18T16:03:33;4.80;43.00
3868;DHT22;1949;48.152;11.528;2022-12-18T16:05:59;4.70;42.80
3868;DHT22;1949;48.152;11.528;2022-12-18T16:08:32;4.70;42.80
3868;DHT22;1949;48.152;11.528;2022-12-18T16:10:58;4.70;42.80
3868;DHT22;1949;48.152;11.528;2022-12-18T16:13:24;4.60;42.70
3868;DHT22;1949;48.152;11.528;2022-12-18T16:15:53;4.60;42.90
3868;DHT22;1949;48.152;11.528;2022-12-18T16:18:18;4.70;43.10
3868;DHT22;1949;48.152;11.528;2022-12-18T16:20:44;4.60;43.10
3868;DHT22;1949;48.152;11.528;2022-12-18T16:23:14;4.60;43.00
3868;DHT22;1949;48.152;11.528;2022-12-18T16:25:42;4.60;42.90
3868;DHT22;1949;48.152;11.528;2022-12-18T16:28:12;4.60;43.10
3868;DHT22;1949;48.152;11.528;2022-12-18T16:30:39;4.60;43.20
3868;DHT22;1949;48.152;11.528;2022-12-18T16:33:05;4.70;43.10
3868;DHT22;1949;48.152;11.528;2022-12-18T16:35:34;4.70;43.10
3868;DHT22;1949;48.152;11.528;2022-12-18T16:38:04;4.80;43.20
3868;DHT22;1949;48.152;11.528;2022-12-18T16:40:32;4.80;43.10
3868;DHT22;1949;48.152;11.528;2022-12-18T16:42:58;4.70;43.00
3868;DHT22;1949;48.152;11.528;2022-12-18T16:45:29;4.70;43.00
3868;DHT22;1949;48.152;11.528;2022-12-18T16:47:59;4.70;42.90
3868;DHT22;1949;48.152;11.528;2022-12-18T16:50:25;4.70;43.00
3868;DHT22;1949;48.152;11.528;2022-12-18T16:52:55;4.70;43.10
3868;DHT22;1949;48.152;11.528;2022-12-18T16:55:23;4.70;43.00
3868;DHT22;1949;48.152;11.528;2022-12-18T16:57:48;4.70;43.00
3868;DHT22;1949;48.152;11.528;2022-12-18T17:00:14;4.70;43.10
3868;DHT22;1949;48.152;11.528;2022-12-18T17:02:44;4.80;43.10
3868;DHT22;1949;48.152;11.528;2022-12-18T17:05:12;4.80;43.20
3868;DHT22;1949;48.152;11.528;2022-12-18T17:07:37;4.90;43.10
3868;DHT22;1949;48.152;11.528;2022-12-18T17:10:05;4.90;43.00
3868;DHT22;1949;48.152;11.528;2022-12-18T17:12:33;4.90;42.90
3868;DHT22;1949;48.152;11.528;2022-12-18T17:15:00;4.80;42.90
3868;DHT22;1949;48.152;11.528;2022-12-18T17:17:27;4.90;42.90
3868;DHT22;1949;48.152;11.528;2022-12-18T17:19:57;4.90;43.00
3868;DHT22;1949;48.152;11.528;2022-12-18T17:22:31;4.90;43.00
3868;DHT22;1949;48.152;11.528;2022-12-18T17:25:02;4.90;42.90
3868;DHT22;1949;48.152;11.528;2022-12-18T17:27:31;4.80;42.80
3868;DHT22;1949;48.152;11.528;2022-12-18T17:29:56;4.80;42.80
3868;DHT22;1949;48.152;11.528;2022-12-18T17:32:22;4.80;42.80
3868;DHT22;1949;48.152;11.528;2022-12-18T17:34:52;4.80;42.80
3868;DHT22;1949;48.152;11.528;2022-12-18T17:37:20;4.90;43.00
3868;DHT22;1949;48.152;11.528;2022-12-18T17:39:47;4.70;42.90
3868;DHT22;1949;48.152;11.528;2022-12-18T17:42:20;4.70;42.90
3868;DHT22;1949;48.152;11.528;2022-12-18T17:44:49;4.70;42.90
3868;DHT22;1949;48.152;11.528;2022-12-18T17:47:22;4.80;43.10
3868;DHT22;1949;48.152;11.528;2022-12-18T17:49:52;4.80;42.90
3868;DHT22;1949;48.152;11.528;2022-12-18T17:52:19;4.80;42.90
3868;DHT22;1949;48.152;11.528;2022-12-18T17:54:49;4.70;42.80
3868;DHT22;1949;48.152;11.528;2022-12-18T17:57:16;4.70;42.80
3868;DHT22;1949;48.152;11.528;2022-12-18T17:59:42;4.70;42.80
3868;DHT22;1949;48.152;11.528;2022-12-18T18:02:10;4.60;42.80
3868;DHT22;1949;48.152;11.528;2022-12-18T18:04:38;4.60;42.90
3868;DHT22;1949;48.152;11.528;2022-12-18T18:07:04;4.60;42.90
3868;DHT22;1949;48.152;11.528;2022-12-18T18:09:31;4.60;42.90
3868;DHT22;1949;48.152;11.528;2022-12-18T18:11:58;4.60;42.80
3868;DHT22;1949;48.152;11.528;2022-12-18T18:14:43;4.60;42.90
3868;DHT22;1949;48.152;11.528;2022-12-18T18:17:09;4.50;42.70
3868;DHT22;1949;48.152;11.528;2022-12-18T18:19:37;4.50;42.80
3868;DHT22;1949;48.152;11.528;2022-12-18T18:22:02;4.50;42.80
3868;DHT22;1949;48.152;11.528;2022-12-18T18:24:32;4.50;42.90
3868;DHT22;1949;48.152;11.528;2022-12-18T18:26:58;4.50;42.90
3868;DHT22;1949;48.152;11.528;2022-12-18T18:29:25;4.50;42.90
3868;DHT22;1949;48.152;11.528;2022-12-18T18:31:57;4.40;42.90